createdAt,value
2023-03-16T00:02:06.476Z,5.66
2023-03-16T00:04:37.455Z,5.67
2023-03-16T00:07:09.357Z,5.68
2023-03-16T00:09:40.806Z,5.70
2023-03-16T00:12:17.295Z,5.68
2023-03-16T00:14:46.940Z,5.69
2023-03-16T00:17:19.925Z,5.70
2023-03-16T00:19:55.746Z,5.69
2023-03-16T00:22:25.391Z,5.70
2023-03-16T00:24:52.875Z,5.70
2023-03-16T00:27:20.037Z,5.70
2023-03-16T00:29:48.859Z,5.69
2023-03-16T00:32:27.942Z,5.69
2023-03-16T00:34:55.455Z,5.71
2023-03-16T00:37:24.154Z,5.71
2023-03-16T00:39:52.215Z,5.72
2023-03-16T00:42:20.183Z,5.72
2023-03-16T00:44:47.445Z,5.72
2023-03-16T00:47:15.061Z,5.71
2023-03-16T00:49:43.919Z,5.70
2023-03-16T00:52:15.279Z,5.69
2023-03-16T00:54:44.382Z,5.68
2023-03-16T00:57:14.010Z,5.67
2023-03-16T00:59:42.123Z,5.66
2023-03-16T01:02:10.754Z,5.63
2023-03-16T01:04:39.931Z,5.62
2023-03-16T01:07:08.660Z,5.59
2023-03-16T01:09:36.959Z,5.58
2023-03-16T01:12:11.341Z,5.55
2023-03-16T01:14:39.028Z,5.54
2023-03-16T01:17:08.486Z,5.50
2023-03-16T01:19:37.296Z,5.48
2023-03-16T01:22:06.296Z,5.45
2023-03-16T01:24:34.749Z,5.44
2023-03-16T01:27:02.754Z,5.43
2023-03-16T01:29:29.707Z,5.42
2023-03-16T01:31:58.145Z,5.40
2023-03-16T01:34:25.206Z,5.38
2023-03-16T01:36:52.174Z,5.36
2023-03-16T01:39:51.213Z,5.33
2023-03-16T01:42:18.157Z,5.31
2023-03-16T01:45:01.551Z,5.27
2023-03-16T01:47:38.269Z,5.28
2023-03-16T01:50:07.411Z,5.27
2023-03-16T01:52:38.315Z,5.23
2023-03-16T01:55:09.562Z,5.21
2023-03-16T01:57:42.461Z,5.20
2023-03-16T02:00:23.689Z,5.14
2023-03-16T02:03:13.649Z,5.11
2023-03-16T02:05:59.587Z,5.06
2023-03-16T02:08:28.579Z,5.05
2023-03-16T02:10:57.082Z,5.03
2023-03-16T02:13:36.572Z,4.98
2023-03-16T02:16:07.617Z,4.95
2023-03-16T02:18:36.145Z,4.92
2023-03-16T02:21:29.045Z,4.84
2023-03-16T02:23:56.192Z,4.82
2023-03-16T02:26:47.478Z,4.73
2023-03-16T02:29:50.643Z,4.70
2023-03-16T02:32:18.280Z,4.71
2023-03-16T02:34:45.245Z,4.70
2023-03-16T02:37:13.443Z,4.69
2023-03-16T02:39:43.910Z,4.68
2023-03-16T02:42:18.640Z,4.66
2023-03-16T02:44:53.792Z,4.65
2023-03-16T02:47:41.791Z,4.63
2023-03-16T02:50:12.422Z,4.64
2023-03-16T02:52:41.051Z,4.65
2023-03-16T02:55:09.178Z,4.63
2023-03-16T02:57:36.204Z,4.64
2023-03-16T03:00:14.459Z,4.61
2023-03-16T03:02:41.809Z,4.60
2023-03-16T03:05:08.836Z,4.58
2023-03-16T03:07:37.169Z,4.56
2023-03-16T03:10:07.241Z,4.55
2023-03-16T03:12:34.643Z,4.55
2023-03-16T03:15:05.653Z,4.55
2023-03-16T03:17:39.838Z,4.53
2023-03-16T03:20:13.603Z,4.54
2023-03-16T03:22:40.806Z,4.54
2023-03-16T03:25:09.303Z,4.52
2023-03-16T03:27:36.278Z,4.53
2023-03-16T03:30:07.321Z,4.51
2023-03-16T03:32:34.130Z,4.51
2023-03-16T03:35:01.342Z,4.51
2023-03-16T03:37:28.827Z,4.49
2023-03-16T03:39:56.050Z,4.47
2023-03-16T03:42:26.088Z,4.47
2023-03-16T03:44:53.740Z,4.45
2023-03-16T03:47:21.608Z,4.43
2023-03-16T03:49:48.597Z,4.42
2023-03-16T03:52:15.839Z,4.40
2023-03-16T03:54:42.694Z,4.40
2023-03-16T03:57:13.639Z,4.38
2023-03-16T03:59:43.749Z,4.36
2023-03-16T04:02:29.028Z,4.36
2023-03-16T04:04:56.322Z,4.35
2023-03-16T04:07:23.267Z,4.35
2023-03-16T04:09:53.901Z,4.35
2023-03-16T04:12:29.161Z,4.35
2023-03-16T04:14:56.575Z,4.36
2023-03-16T04:17:25.121Z,4.35
2023-03-16T04:19:53.370Z,4.36
2023-03-16T04:22:23.055Z,4.36
2023-03-16T04:24:52.254Z,4.35
2023-03-16T04:27:19.509Z,4.35
2023-03-16T04:29:46.573Z,4.34
2023-03-16T04:32:13.467Z,4.32
2023-03-16T04:34:43.680Z,4.33
2023-03-16T04:37:13.021Z,4.34
2023-03-16T04:39:42.224Z,4.29
2023-03-16T04:42:09.292Z,4.32
2023-03-16T04:44:44.003Z,4.32
2023-03-16T04:47:16.274Z,4.29
2023-03-16T04:49:44.297Z,4.32
2023-03-16T04:52:11.723Z,4.32
2023-03-16T04:54:39.627Z,4.32
2023-03-16T04:57:06.531Z,4.33
2023-03-16T04:59:41.809Z,4.33
2023-03-16T05:02:19.371Z,4.34
2023-03-16T05:04:46.495Z,4.32
2023-03-16T05:07:13.391Z,4.33
2023-03-16T05:09:44.136Z,4.32
2023-03-16T05:12:11.168Z,4.32
2023-03-16T05:14:38.987Z,4.32
2023-03-16T05:17:35.096Z,4.32
2023-03-16T05:20:02.148Z,4.31
2023-03-16T05:22:29.183Z,4.30
2023-03-16T05:25:20.826Z,4.28
2023-03-16T05:27:54.171Z,4.26
2023-03-16T05:30:31.061Z,4.26
2023-03-16T05:33:00.305Z,4.23
2023-03-16T05:35:28.408Z,4.23
2023-03-16T05:38:00.092Z,4.24
2023-03-16T05:40:28.858Z,4.23
2023-03-16T05:43:06.459Z,4.24
2023-03-16T05:45:38.320Z,4.24
2023-03-16T05:48:12.903Z,4.24
2023-03-16T05:50:45.071Z,4.24
2023-03-16T05:53:16.975Z,4.25
2023-03-16T05:55:44.134Z,4.26
2023-03-16T05:58:20.112Z,4.27
2023-03-16T06:00:47.845Z,4.28
2023-03-16T06:03:22.984Z,4.29
2023-03-16T06:05:50.996Z,4.30
2023-03-16T06:08:24.939Z,4.32
2023-03-16T06:10:53.842Z,4.33
2023-03-16T06:13:21.349Z,4.35
2023-03-16T06:15:49.691Z,4.36
2023-03-16T06:18:16.541Z,4.40
2023-03-16T06:20:47.004Z,4.41
2023-03-16T06:23:13.985Z,4.43
2023-03-16T06:25:41.391Z,4.46
2023-03-16T06:28:12.083Z,4.47
2023-03-16T06:30:40.811Z,4.48
2023-03-16T06:33:08.449Z,4.53
2023-03-16T06:35:35.433Z,4.56
2023-03-16T06:38:16.145Z,4.62
2023-03-16T06:40:53.595Z,4.67
2023-03-16T06:43:21.375Z,4.74
2023-03-16T06:45:48.294Z,4.79
2023-03-16T06:48:15.452Z,4.86
2023-03-16T06:50:46.463Z,4.91
2023-03-16T06:53:15.039Z,4.97
2023-03-16T06:55:42.623Z,5.05
2023-03-16T06:58:09.440Z,5.09
2023-03-16T07:00:36.339Z,5.16
2023-03-16T07:03:03.809Z,5.23
2023-03-16T07:05:32.994Z,5.29
2023-03-16T07:08:01.111Z,5.37
2023-03-16T07:10:28.301Z,5.43
2023-03-16T07:12:55.382Z,5.49
2023-03-16T07:15:25.422Z,5.53
2023-03-16T07:17:53.000Z,5.59
2023-03-16T07:20:21.683Z,5.67
2023-03-16T07:22:49.647Z,5.74
2023-03-16T07:25:16.544Z,5.80
2023-03-16T07:27:49.365Z,5.88
2023-03-16T07:30:22.191Z,5.94
2023-03-16T07:32:50.176Z,6.00
2023-03-16T07:35:18.621Z,6.08
2023-03-16T07:37:45.688Z,6.16
2023-03-16T07:40:13.901Z,6.24
2023-03-16T07:42:41.401Z,6.33
2023-03-16T07:45:17.776Z,6.40
2023-03-16T07:47:45.667Z,6.48
2023-03-16T07:50:22.192Z,6.56
2023-03-16T07:52:49.851Z,6.64
2023-03-16T07:55:16.925Z,6.71
2023-03-16T07:57:47.833Z,6.80
2023-03-16T08:00:20.483Z,6.89
2023-03-16T08:02:47.409Z,6.97
2023-03-16T08:05:15.388Z,7.05
2023-03-16T08:07:46.922Z,7.15
2023-03-16T08:10:19.180Z,7.24
2023-03-16T08:12:59.916Z,7.33
2023-03-16T08:15:27.548Z,7.41
2023-03-16T08:18:04.607Z,7.51
2023-03-16T08:20:32.335Z,7.57
2023-03-16T08:22:59.736Z,7.64
2023-03-16T08:25:31.630Z,7.72
2023-03-16T08:28:08.805Z,7.82
2023-03-16T08:30:36.341Z,7.88
2023-03-16T08:33:17.876Z,7.96
2023-03-16T08:35:45.414Z,8.04
2023-03-16T08:38:14.106Z,8.13
2023-03-16T08:40:42.125Z,8.22
2023-03-16T08:43:09.690Z,8.30
2023-03-16T08:45:36.808Z,8.38
2023-03-16T08:48:04.927Z,8.48
2023-03-16T08:50:32.145Z,8.57
2023-03-16T08:52:59.354Z,8.64
2023-03-16T08:55:27.515Z,8.73
2023-03-16T08:57:54.463Z,8.81
2023-03-16T09:00:21.823Z,8.90
2023-03-16T09:02:48.649Z,9.00
2023-03-16T09:05:18.100Z,9.09
2023-03-16T09:07:47.648Z,9.18
2023-03-16T09:10:16.223Z,9.28
2023-03-16T09:12:43.893Z,9.37
2023-03-16T09:15:13.684Z,9.46
2023-03-16T09:17:41.626Z,9.59
2023-03-16T09:20:34.813Z,9.68
2023-03-16T09:22:58.788Z,9.82
2023-03-16T09:25:26.098Z,9.94
2023-03-16T09:27:53.768Z,10.05
2023-03-16T09:30:20.693Z,10.18
2023-03-16T09:32:48.859Z,10.29
2023-03-16T09:35:15.983Z,10.39
2023-03-16T09:38:04.242Z,10.49
2023-03-16T09:40:30.893Z,10.60
2023-03-16T09:43:24.903Z,10.67
2023-03-16T09:46:05.501Z,10.82
2023-03-16T09:48:36.180Z,10.93
2023-03-16T09:51:08.376Z,11.06
2023-03-16T09:53:39.152Z,11.15
2023-03-16T09:56:20.538Z,11.26
2023-03-16T09:58:47.328Z,11.40
2023-03-16T10:01:48.175Z,11.47
2023-03-16T10:04:51.824Z,11.60
2023-03-16T10:07:27.689Z,11.72
2023-03-16T10:10:14.518Z,11.80
2023-03-16T10:12:51.372Z,11.92
2023-03-16T10:15:27.452Z,12.08
2023-03-16T10:18:17.561Z,12.17
2023-03-16T10:20:46.536Z,12.33
2023-03-16T10:23:24.820Z,12.40
2023-03-16T10:25:55.200Z,12.55
2023-03-16T10:28:27.890Z,12.65
2023-03-16T10:30:59.337Z,12.77
2023-03-16T10:33:32.104Z,12.88
2023-03-16T10:36:25.206Z,12.98
2023-03-16T10:39:00.175Z,13.16
2023-03-16T10:41:36.545Z,13.29
2023-03-16T10:44:33.381Z,13.43
2023-03-16T10:47:08.143Z,13.60
2023-03-16T10:49:44.269Z,13.74
2023-03-16T10:52:14.030Z,13.83
2023-03-16T10:54:49.517Z,13.90
2023-03-16T10:57:43.277Z,13.99
2023-03-16T11:00:21.111Z,14.14
2023-03-16T11:02:50.027Z,14.29
2023-03-16T11:05:20.493Z,14.43
2023-03-16T11:08:00.695Z,14.55
2023-03-16T11:10:40.443Z,14.68
2023-03-16T11:13:20.026Z,14.82
2023-03-16T11:16:01.543Z,14.94
2023-03-16T11:18:55.629Z,15.09
2023-03-16T11:21:41.234Z,15.23
2023-03-16T11:24:30.172Z,15.37
2023-03-16T11:27:01.510Z,15.54
2023-03-16T11:29:52.696Z,15.66
2023-03-16T11:32:26.672Z,15.84
2023-03-16T11:34:53.943Z,16.02
2023-03-16T11:37:52.679Z,16.10
2023-03-16T11:40:55.879Z,16.25
2023-03-16T11:43:56.819Z,16.42
2023-03-16T11:46:28.418Z,16.60
2023-03-16T11:49:52.425Z,16.73
2023-03-16T11:52:41.462Z,16.87
2023-03-16T11:55:32.636Z,17.01
2023-03-16T11:58:49.766Z,17.13
2023-03-16T12:01:58.135Z,17.30
2023-03-16T12:04:51.561Z,17.43
2023-03-16T12:07:35.252Z,17.54
2023-03-16T12:10:14.023Z,17.69
2023-03-16T12:13:02.104Z,17.71
2023-03-16T12:15:44.750Z,17.78
2023-03-16T12:18:21.764Z,17.86
2023-03-16T12:20:59.564Z,17.95
2023-03-16T12:23:46.043Z,18.02
2023-03-16T12:26:14.574Z,18.13
2023-03-16T12:28:43.802Z,18.20
2023-03-16T12:31:40.064Z,18.23
2023-03-16T12:34:21.401Z,18.35
2023-03-16T12:37:14.152Z,18.43
2023-03-16T12:40:15.647Z,18.53
2023-03-16T12:43:23.974Z,18.63
2023-03-16T12:46:28.942Z,18.70
2023-03-16T12:49:01.128Z,18.77
2023-03-16T12:51:41.351Z,18.79
2023-03-16T12:54:21.717Z,18.82
2023-03-16T12:56:50.583Z,18.87
2023-03-16T12:59:23.803Z,18.86
2023-03-16T13:01:58.876Z,18.86
2023-03-16T13:04:44.586Z,18.86
2023-03-16T13:07:22.876Z,18.92
2023-03-16T13:10:04.208Z,18.94
2023-03-16T13:12:36.924Z,19.04
2023-03-16T13:15:19.866Z,19.05
2023-03-16T13:17:50.852Z,19.15
2023-03-16T13:20:30.755Z,19.22
2023-03-16T13:23:23.993Z,19.31
2023-03-16T13:26:16.416Z,19.40
2023-03-16T13:28:50.849Z,19.52
2023-03-16T13:31:38.866Z,19.65
2023-03-16T13:34:08.343Z,19.83
2023-03-16T13:36:36.953Z,19.96
2023-03-16T13:39:27.122Z,20.06
2023-03-16T13:42:14.415Z,20.25
2023-03-16T13:44:42.559Z,20.45
2023-03-16T13:47:16.825Z,20.62
2023-03-16T13:49:58.217Z,20.81
2023-03-16T13:52:34.105Z,21.04
2023-03-16T13:55:06.565Z,21.26
2023-03-16T13:57:38.983Z,21.47
2023-03-16T14:00:20.128Z,21.65
2023-03-16T14:02:55.751Z,21.87
2023-03-16T14:05:25.974Z,22.11
2023-03-16T14:07:55.552Z,22.39
2023-03-16T14:10:24.701Z,22.66
2023-03-16T14:12:58.039Z,22.94
2023-03-16T14:15:30.908Z,23.18
2023-03-16T14:18:22.369Z,23.35
2023-03-16T14:20:56.295Z,23.60
2023-03-16T14:23:41.194Z,23.76
2023-03-16T14:26:14.986Z,23.96
2023-03-16T14:28:57.365Z,24.05
2023-03-16T14:31:38.489Z,24.11
2023-03-16T14:34:22.249Z,24.16
2023-03-16T14:36:49.223Z,24.25
2023-03-16T14:39:20.605Z,24.22
2023-03-16T14:41:52.314Z,24.26
2023-03-16T14:44:24.722Z,24.26
2023-03-16T14:46:56.339Z,24.22
2023-03-16T14:49:33.123Z,24.05
2023-03-16T14:52:09.230Z,23.92
2023-03-16T14:54:36.605Z,23.74
2023-03-16T14:57:08.281Z,23.60
2023-03-16T14:59:35.217Z,23.49
2023-03-16T15:02:04.150Z,23.38
2023-03-16T15:04:37.100Z,23.22
2023-03-16T15:07:28.416Z,23.13
2023-03-16T15:10:29.412Z,23.20
2023-03-16T15:13:05.916Z,23.34
2023-03-16T15:15:32.758Z,23.36
2023-03-16T15:18:00.046Z,23.25
2023-03-16T15:20:35.804Z,23.02
2023-03-16T15:23:04.796Z,22.84
2023-03-16T15:25:41.354Z,22.54
2023-03-16T15:28:23.573Z,22.24
2023-03-16T15:30:57.324Z,22.00
2023-03-16T15:33:25.618Z,21.77
2023-03-16T15:35:57.666Z,21.50
2023-03-16T15:38:34.502Z,21.22
2023-03-16T15:41:01.476Z,21.04
2023-03-16T15:43:30.581Z,20.83
2023-03-16T15:45:59.698Z,20.65
2023-03-16T15:48:26.999Z,20.48
2023-03-16T15:51:01.761Z,20.28
2023-03-16T15:53:35.724Z,20.14
2023-03-16T15:56:13.940Z,19.94
2023-03-16T15:58:45.433Z,19.81
2023-03-16T16:01:27.151Z,19.61
2023-03-16T16:03:55.817Z,19.52
2023-03-16T16:06:23.951Z,19.42
2023-03-16T16:08:50.864Z,19.32
2023-03-16T16:11:23.808Z,19.19
2023-03-16T16:13:51.494Z,19.11
2023-03-16T16:16:19.871Z,18.99
2023-03-16T16:18:48.273Z,18.88
2023-03-16T16:21:25.606Z,18.76
2023-03-16T16:23:52.894Z,18.68
2023-03-16T16:26:34.361Z,18.56
2023-03-16T16:29:22.248Z,18.44
2023-03-16T16:31:51.318Z,18.39
2023-03-16T16:34:21.522Z,18.25
2023-03-16T16:36:49.133Z,18.18
2023-03-16T16:39:16.754Z,18.08
2023-03-16T16:41:44.058Z,18.00
2023-03-16T16:44:21.378Z,17.85
2023-03-16T16:46:50.289Z,17.78
2023-03-16T16:49:23.984Z,17.66
2023-03-16T16:51:52.476Z,17.57
2023-03-16T16:54:22.766Z,17.48
2023-03-16T16:56:52.498Z,17.38
2023-03-16T16:59:32.053Z,17.29
2023-03-16T17:02:01.788Z,17.21
2023-03-16T17:04:29.648Z,17.28
2023-03-16T17:07:01.687Z,17.37
2023-03-16T17:09:30.009Z,17.45
2023-03-16T17:11:59.558Z,17.50
2023-03-16T17:14:28.174Z,17.55
2023-03-16T17:16:55.887Z,17.51
2023-03-16T17:19:27.988Z,17.42
2023-03-16T17:21:57.344Z,17.36
2023-03-16T17:24:24.849Z,17.27
2023-03-16T17:26:58.675Z,17.13
2023-03-16T17:29:29.860Z,17.03
2023-03-16T17:31:56.887Z,16.95
2023-03-16T17:34:27.289Z,16.80
2023-03-16T17:36:55.135Z,16.70
2023-03-16T17:39:28.368Z,16.55
2023-03-16T17:42:04.379Z,16.45
2023-03-16T17:44:34.605Z,16.33
2023-03-16T17:47:01.608Z,16.21
2023-03-16T17:49:30.477Z,16.12
2023-03-16T17:51:57.405Z,16.00
2023-03-16T17:54:24.225Z,15.88
2023-03-16T17:56:53.627Z,15.77
2023-03-16T17:59:22.172Z,15.65
2023-03-16T18:01:49.171Z,15.57
2023-03-16T18:04:22.796Z,15.42
2023-03-16T18:06:51.182Z,15.34
2023-03-16T18:09:20.377Z,15.22
2023-03-16T18:11:49.890Z,15.12
2023-03-16T18:14:35.502Z,14.97
2023-03-16T18:17:31.469Z,14.87
2023-03-16T18:19:59.010Z,14.81
2023-03-16T18:22:25.893Z,14.74
2023-03-16T18:24:54.964Z,14.65
2023-03-16T18:27:22.325Z,14.59
2023-03-16T18:29:49.212Z,14.53
2023-03-16T18:32:25.830Z,14.43
2023-03-16T18:34:53.640Z,14.39
2023-03-16T18:37:24.241Z,14.31
2023-03-16T18:39:52.887Z,14.26
2023-03-16T18:42:28.656Z,14.17
2023-03-16T18:44:55.539Z,14.14
2023-03-16T18:47:24.106Z,14.08
2023-03-16T18:49:53.968Z,14.03
2023-03-16T18:52:21.970Z,13.88
2023-03-16T18:54:49.453Z,13.91
2023-03-16T18:57:22.933Z,13.83
2023-03-16T18:59:50.881Z,13.80
2023-03-16T19:02:30.949Z,13.71
2023-03-16T19:05:00.799Z,13.67
2023-03-16T19:07:40.969Z,13.59
2023-03-16T19:10:35.442Z,13.53
2023-03-16T19:13:02.374Z,13.53
2023-03-16T19:15:32.727Z,13.46
2023-03-16T19:18:00.151Z,13.45
2023-03-16T19:20:30.293Z,13.41
2023-03-16T19:23:11.637Z,13.34
2023-03-16T19:25:41.280Z,13.33
2023-03-16T19:28:15.207Z,13.28
2023-03-16T19:30:42.753Z,13.28
2023-03-16T19:33:20.753Z,13.22
2023-03-16T19:35:51.896Z,13.23
2023-03-16T19:38:21.241Z,13.19
2023-03-16T19:40:53.494Z,13.16
2023-03-16T19:43:21.895Z,13.14
2023-03-16T19:45:49.742Z,13.12
2023-03-16T19:48:23.069Z,13.08
2023-03-16T19:50:51.083Z,13.07
2023-03-16T19:53:21.558Z,13.03
2023-03-16T19:55:51.104Z,12.99
2023-03-16T19:58:39.288Z,12.91
2023-03-16T20:01:17.366Z,12.89
2023-03-16T20:03:47.425Z,12.88
2023-03-16T20:06:15.991Z,12.78
2023-03-16T20:08:44.042Z,12.82
2023-03-16T20:11:17.589Z,12.77
2023-03-16T20:13:46.671Z,12.77
2023-03-16T20:16:33.474Z,12.71
2023-03-16T20:19:05.129Z,12.70
2023-03-16T20:21:32.513Z,12.68
2023-03-16T20:24:00.372Z,12.66
2023-03-16T20:26:33.211Z,12.61
2023-03-16T20:29:00.876Z,12.60
2023-03-16T20:31:31.344Z,12.55
2023-03-16T20:33:59.009Z,12.53
2023-03-16T20:36:26.998Z,12.48
2023-03-16T20:38:53.833Z,12.47
2023-03-16T20:41:27.605Z,12.41
2023-03-16T20:43:56.827Z,12.39
2023-03-16T20:46:30.765Z,12.34
2023-03-16T20:49:00.490Z,12.34
2023-03-16T20:51:28.686Z,12.33
2023-03-16T20:53:55.520Z,12.31
2023-03-16T20:56:26.526Z,12.28
2023-03-16T20:58:55.841Z,12.29
2023-03-16T21:01:24.410Z,12.26
2023-03-16T21:03:55.081Z,12.23
2023-03-16T21:06:28.329Z,12.21
2023-03-16T21:08:58.063Z,12.19
2023-03-16T21:11:33.819Z,12.17
2023-03-16T21:14:01.307Z,12.17
2023-03-16T21:16:30.142Z,12.14
2023-03-16T21:18:56.991Z,12.13
2023-03-16T21:21:23.945Z,12.11
2023-03-16T21:23:51.064Z,12.08
2023-03-16T21:26:23.522Z,12.03
2023-03-16T21:28:59.485Z,12.02
2023-03-16T21:31:27.004Z,12.03
2023-03-16T21:33:54.832Z,12.00
2023-03-16T21:36:26.487Z,11.97
2023-03-16T21:38:54.498Z,11.97
2023-03-16T21:41:21.446Z,11.96
2023-03-16T21:43:49.952Z,11.96
2023-03-16T21:46:20.671Z,11.94
2023-03-16T21:48:53.488Z,11.92
2023-03-16T21:51:25.183Z,11.94
2023-03-16T21:53:53.380Z,11.94
2023-03-16T21:56:23.678Z,11.92
2023-03-16T21:58:52.049Z,11.92
2023-03-16T22:01:29.088Z,11.90
2023-03-16T22:04:01.634Z,11.90
2023-03-16T22:06:29.134Z,11.89
2023-03-16T22:08:57.505Z,11.88
2023-03-16T22:11:27.995Z,11.86
2023-03-16T22:13:57.569Z,11.84
2023-03-16T22:16:27.869Z,11.81
2023-03-16T22:18:56.764Z,11.81
2023-03-16T22:21:40.941Z,11.74
2023-03-16T22:24:16.762Z,11.72
2023-03-16T22:26:43.682Z,11.72
2023-03-16T22:29:23.539Z,11.65
2023-03-16T22:31:55.294Z,11.64
2023-03-16T22:34:35.478Z,11.58
2023-03-16T22:37:02.908Z,11.58
2023-03-16T22:39:36.696Z,11.53
2023-03-16T22:42:22.659Z,11.48
2023-03-16T22:44:49.495Z,11.49
2023-03-16T22:47:28.478Z,11.42
2023-03-16T22:49:55.367Z,11.40
2023-03-16T22:52:29.178Z,11.33
2023-03-16T22:54:58.032Z,11.31
2023-03-16T22:57:25.047Z,11.29
2023-03-16T22:59:52.774Z,11.24
2023-03-16T23:02:24.454Z,11.19
2023-03-16T23:04:51.358Z,11.18
2023-03-16T23:07:19.609Z,11.13
2023-03-16T23:09:49.213Z,11.09
2023-03-16T23:12:21.132Z,11.04
2023-03-16T23:14:47.978Z,11.00
2023-03-16T23:17:20.704Z,10.93
2023-03-16T23:19:48.055Z,10.90
2023-03-16T23:22:15.636Z,10.85
2023-03-16T23:24:43.066Z,10.83
2023-03-16T23:27:22.666Z,10.75
2023-03-16T23:29:49.487Z,10.74
2023-03-16T23:32:17.212Z,10.70
2023-03-16T23:34:44.258Z,10.66
2023-03-16T23:37:11.438Z,10.62
2023-03-16T23:39:38.319Z,10.60
2023-03-16T23:42:05.449Z,10.56
2023-03-16T23:44:32.445Z,10.54
2023-03-16T23:47:00.492Z,10.51
2023-03-16T23:49:32.532Z,10.46
2023-03-16T23:52:01.320Z,10.43
2023-03-16T23:54:31.174Z,10.39
2023-03-16T23:56:58.131Z,10.35
2023-03-16T23:59:27.242Z,10.35
